Time;durP1;ratioP1;P1;durP2;ratioP2;P2;SDS_P1;SDS_P2;PMS_P1;PMS_P2;Temp;Humidity;BMP_temperature;BMP_pressure;BME280_temperature;BME280_humidity;BME280_pressure;Samples;Min_cycle;Max_cycle;Signal;HPM_P1;HPM_P2
2022/03/29 00:01:12;;;;;;;47.20;24.17;;;9.60;68.50;;;;;;9178855;19;20015;-68
2022/03/29 00:04:22;;;;;;;42.50;22.67;;;9.50;68.40;;;;;;9178322;19;20054;-65
2022/03/29 00:07:27;;;;;;;40.80;22.73;;;9.50;68.40;;;;;;9177858;19;20044;-66
2022/03/29 00:10:32;;;;;;;38.90;21.52;;;9.50;68.50;;;;;;9175976;19;20014;-68
2022/03/29 00:13:40;;;;;;;51.15;22.67;;;9.50;68.50;;;;;;9176990;19;20018;-67
2022/03/29 00:16:45;;;;;;;39.35;21.95;;;9.50;68.70;;;;;;9175611;19;20044;-67
2022/03/29 00:19:50;;;;;;;41.78;23.33;;;9.50;68.70;;;;;;9178661;19;20550;-67
2022/03/29 00:22:56;;;;;;;39.55;21.55;;;9.50;68.70;;;;;;9175775;19;20010;-69
2022/03/29 00:26:01;;;;;;;44.58;24.27;;;9.50;68.70;;;;;;9176047;19;20018;-67
2022/03/29 00:29:08;;;;;;;42.28;22.92;;;9.50;68.70;;;;;;9176075;19;20026;-67
2022/03/29 00:32:13;;;;;;;43.78;23.55;;;9.50;68.90;;;;;;9171369;19;20025;-67
2022/03/29 00:35:18;;;;;;;46.97;24.65;;;9.50;68.80;;;;;;9180348;19;20011;-69
2022/03/29 00:38:23;;;;;;;43.45;23.77;;;9.50;68.90;;;;;;9178801;19;20011;-67
2022/03/29 00:41:28;;;;;;;38.88;22.30;;;9.40;68.80;;;;;;9177698;19;20372;-69
2022/03/29 00:44:38;;;;;;;51.53;24.40;;;9.40;68.80;;;;;;9179781;19;20090;-67
2022/03/29 00:47:44;;;;;;;43.50;23.08;;;9.50;69.10;;;;;;9180152;19;20014;-69
2022/03/29 00:50:49;;;;;;;42.20;22.27;;;9.40;69.00;;;;;;9178346;19;20502;-67
2022/03/29 00:53:54;;;;;;;47.00;23.17;;;9.40;69.00;;;;;;9178431;19;20026;-68
2022/03/29 00:57:00;;;;;;;48.00;24.98;;;9.40;69.00;;;;;;9176732;19;20018;-67
2022/03/29 01:00:10;;;;;;;43.83;23.27;;;9.40;69.00;;;;;;9179111;19;20083;-68
2022/03/29 01:03:15;;;;;;;39.85;20.88;;;9.40;69.10;;;;;;9174877;19;20018;-69
2022/03/29 01:06:21;;;;;;;47.38;22.20;;;9.40;69.10;;;;;;9177269;19;20018;-68
2022/03/29 01:09:26;;;;;;;43.88;22.40;;;9.40;69.10;;;;;;9175959;19;20090;-68
2022/03/29 01:12:33;;;;;;;39.85;21.15;;;9.40;69.10;;;;;;9176852;19;20362;-68
2022/03/29 01:15:43;;;;;;;48.10;22.10;;;9.50;69.90;;;;;;9177960;19;20021;-68
2022/03/29 01:18:47;;;;;;;44.83;22.30;;;9.40;69.20;;;;;;9178778;19;20044;-69
2022/03/29 01:21:59;;;;;;;43.85;21.58;;;9.40;69.20;;;;;;9185512;19;20022;-68
2022/03/29 01:25:04;;;;;;;45.03;21.90;;;9.40;69.30;;;;;;9188447;19;20037;-68
2022/03/29 01:28:09;;;;;;;43.55;23.20;;;9.40;69.20;;;;;;9182311;19;20022;-69
2022/03/29 01:31:16;;;;;;;45.50;22.42;;;9.40;69.20;;;;;;9180075;19;20044;-67
2022/03/29 01:34:21;;;;;;;45.72;21.92;;;9.40;69.20;;;;;;9187222;19;20015;-68
2022/03/29 01:37:29;;;;;;;42.85;22.30;;;9.40;69.20;;;;;;9185509;19;20043;-70
2022/03/29 01:40:34;;;;;;;46.80;22.63;;;9.40;69.30;;;;;;9187127;19;20029;-65
2022/03/29 01:43:39;;;;;;;46.35;21.73;;;9.40;69.30;;;;;;9186101;19;20014;-67
2022/03/29 01:46:44;;;;;;;46.30;22.13;;;9.40;69.30;;;;;;9188177;19;20018;-67
2022/03/29 01:49:49;;;;;;;47.20;22.17;;;9.40;69.30;;;;;;9184778;19;20022;-67
2022/03/29 01:52:58;;;;;;;46.90;22.38;;;9.40;69.40;;;;;;9185659;19;20018;-70
2022/03/29 01:56:03;;;;;;;39.83;20.88;;;9.40;69.30;;;;;;9184995;19;20381;-69
2022/03/29 01:59:11;;;;;;;43.25;21.40;;;9.30;69.30;;;;;;9186151;19;20085;-67
2022/03/29 02:02:16;;;;;;;44.88;23.10;;;9.30;69.30;;;;;;9184913;19;20021;-68
2022/03/29 02:05:22;;;;;;;46.03;22.33;;;9.30;69.30;;;;;;9183729;19;20018;-68
2022/03/29 02:08:30;;;;;;;44.42;21.33;;;9.30;69.30;;;;;;9184073;19;20047;-66
2022/03/29 02:11:35;;;;;;;42.38;20.67;;;9.30;69.40;;;;;;9183689;19;20542;-68
2022/03/29 02:14:40;;;;;;;43.60;21.88;;;9.30;69.40;;;;;;9184443;19;20014;-67
2022/03/29 02:17:48;;;;;;;46.92;22.88;;;9.30;69.30;;;;;;9183521;19;20082;-68
2022/03/29 02:20:54;;;;;;;46.33;22.02;;;9.30;69.30;;;;;;9185124;19;20018;-69
2022/03/29 02:24:02;;;;;;;45.65;21.45;;;9.30;69.30;;;;;;9182922;19;20015;-68
2022/03/29 02:27:07;;;;;;;42.30;22.55;;;9.20;69.30;;;;;;9184964;19;20019;-68
2022/03/29 02:30:14;;;;;;;47.45;23.63;;;9.20;69.30;;;;;;9179016;19;20018;-67
2022/03/29 02:33:19;;;;;;;48.85;23.33;;;9.20;69.30;;;;;;9181726;19;20087;-66
2022/03/29 02:36:24;;;;;;;49.58;21.05;;;9.20;69.30;;;;;;9183868;19;20014;-68
2022/03/29 02:39:32;;;;;;;48.42;23.25;;;9.20;69.30;;;;;;9183454;19;20483;-66
2022/03/29 02:42:42;;;;;;;50.30;24.92;;;9.20;69.30;;;;;;9184983;19;20029;-66
2022/03/29 02:45:47;;;;;;;54.10;25.25;;;9.20;69.40;;;;;;9181442;19;20487;-68
2022/03/29 02:48:52;;;;;;;51.42;24.60;;;9.20;69.30;;;;;;9183114;19;20022;-66
2022/03/29 02:51:57;;;;;;;56.85;25.77;;;9.20;69.30;;;;;;9181935;19;20010;-69
2022/03/29 02:55:06;;;;;;;54.28;26.08;;;9.10;69.20;;;;;;9181693;19;20028;-67
2022/03/29 02:58:12;;;;;;;52.78;25.15;;;9.10;69.20;;;;;;9184777;19;20622;-68
2022/03/29 03:01:18;;;;;;;57.15;26.13;;;9.10;69.20;;;;;;9182351;19;20052;-68
2022/03/29 03:04:23;;;;;;;55.95;26.05;;;9.00;69.20;;;;;;9182424;19;20030;-66
2022/03/29 03:07:28;;;;;;;61.28;28.40;;;9.00;69.20;;;;;;9182288;19;20393;-68
2022/03/29 03:10:36;;;;;;;62.92;30.92;;;9.00;69.20;;;;;;9183280;19;20044;-68
2022/03/29 03:13:42;;;;;;;62.90;28.58;;;9.00;69.30;;;;;;9179217;19;20023;-70
2022/03/29 03:16:47;;;;;;;64.05;27.92;;;9.00;69.30;;;;;;9183381;19;20018;-67
2022/03/29 03:20:14;;;;;;;62.97;29.95;;;9.00;69.20;;;;;;9179696;19;20023;-67
2022/03/29 03:23:19;;;;;;;69.55;32.00;;;8.90;69.20;;;;;;9182190;19;20022;-68
2022/03/29 03:26:27;;;;;;;71.53;32.95;;;8.90;69.20;;;;;;9183764;19;20040;-67
2022/03/29 03:29:31;;;;;;;63.95;29.85;;;8.90;69.20;;;;;;9178522;19;20018;-68
2022/03/29 03:32:37;;;;;;;63.35;29.92;;;8.90;69.20;;;;;;9179421;19;20418;-66
2022/03/29 03:35:42;;;;;;;65.15;30.33;;;8.80;69.20;;;;;;9179216;19;20018;-66
2022/03/29 03:38:47;;;;;;;64.63;30.25;;;8.80;69.20;;;;;;9180792;19;20010;-68
2022/03/29 03:41:54;;;;;;;67.18;31.67;;;8.80;69.30;;;;;;9180592;19;20114;-68
2022/03/29 03:45:02;;;;;;;68.22;31.75;;;8.80;69.40;;;;;;9178446;19;20019;-66
2022/03/29 03:48:08;;;;;;;65.53;30.58;;;8.80;69.40;;;;;;9180824;19;20098;-66
2022/03/29 03:51:13;;;;;;;69.18;29.83;;;8.80;69.40;;;;;;9182510;19;20018;-67
2022/03/29 03:54:19;;;;;;;64.13;29.42;;;8.80;69.40;;;;;;9180327;19;20463;-67
2022/03/29 03:57:27;;;;;;;76.10;32.55;;;8.70;69.40;;;;;;9179450;19;20003;-68
2022/03/29 04:00:32;;;;;;;68.85;31.80;;;8.80;69.50;;;;;;9179292;19;20025;-67
2022/03/29 04:03:37;;;;;;;70.13;31.63;;;8.80;69.40;;;;;;9181615;19;20501;-67
2022/03/29 04:06:42;;;;;;;65.47;31.05;;;8.70;69.40;;;;;;9179730;19;20018;-69
2022/03/29 04:09:47;;;;;;;62.60;30.25;;;8.80;69.50;;;;;;9181704;19;20024;-68
2022/03/29 04:12:55;;;;;;;71.55;32.20;;;8.70;69.50;;;;;;9180357;19;20043;-69
2022/03/29 04:16:00;;;;;;;65.85;30.55;;;8.70;69.60;;;;;;9179457;19;20014;-66
2022/03/29 04:19:07;;;;;;;63.75;32.53;;;8.70;69.50;;;;;;9181370;19;20520;-67
2022/03/29 04:22:12;;;;;;;68.15;32.67;;;8.70;69.50;;;;;;9178254;19;20019;-67
2022/03/29 04:25:17;;;;;;;66.30;30.40;;;8.70;69.60;;;;;;9178206;19;20029;-67
2022/03/29 04:28:24;;;;;;;65.90;30.77;;;8.70;69.60;;;;;;9179391;19;20018;-67
2022/03/29 04:31:29;;;;;;;65.15;30.35;;;8.60;69.50;;;;;;9174194;19;20010;-67
2022/03/29 04:34:35;;;;;;;65.15;30.35;;;8.60;69.60;;;;;;9175384;19;20011;-69
2022/03/29 04:37:40;;;;;;;61.67;30.85;;;8.60;69.60;;;;;;9180437;19;20018;-67
2022/03/29 04:40:45;;;;;;;69.63;32.60;;;8.60;69.60;;;;;;9179232;19;20002;-69
2022/03/29 04:43:52;;;;;;;66.45;32.05;;;8.60;69.70;;;;;;9179476;19;20050;-68
2022/03/29 04:46:57;;;;;;;69.95;31.73;;;8.50;69.80;;;;;;9178868;19;20015;-66
2022/03/29 04:50:02;;;;;;;70.80;31.15;;;8.50;69.70;;;;;;9180934;19;20115;-68
2022/03/29 04:53:08;;;;;;;67.60;31.70;;;8.50;69.70;;;;;;9175975;19;20018;-66
2022/03/29 04:56:13;;;;;;;67.32;30.50;;;8.50;69.80;;;;;;9180174;19;20099;-69
2022/03/29 04:59:20;;;;;;;66.78;30.92;;;8.50;69.80;;;;;;9187121;19;20357;-67
2022/03/29 05:02:26;;;;;;;70.63;30.52;;;8.50;69.90;;;;;;9186510;19;20025;-67
2022/03/29 05:05:31;;;;;;;63.30;29.55;;;8.40;69.80;;;;;;9189244;19;20010;-67
2022/03/29 05:08:36;;;;;;;67.32;31.35;;;8.40;70.40;;;;;;9184965;19;20050;-68
2022/03/29 05:11:41;;;;;;;65.25;31.05;;;8.40;69.90;;;;;;9187135;19;20444;-66
2022/03/29 05:14:49;;;;;;;62.25;31.55;;;8.40;69.90;;;;;;9183203;19;20097;-67
2022/03/29 05:17:54;;;;;;;72.35;35.35;;;8.30;69.90;;;;;;9185966;19;20019;-66
2022/03/29 05:20:59;;;;;;;71.38;33.85;;;8.40;70.00;;;;;;9186330;19;20023;-68
2022/03/29 05:24:05;;;;;;;75.20;36.03;;;8.30;70.00;;;;;;9186499;19;20025;-67
2022/03/29 05:27:10;;;;;;;75.10;34.35;;;8.30;70.00;;;;;;9187756;19;20014;-68
2022/03/29 05:30:18;;;;;;;67.53;33.85;;;8.30;70.00;;;;;;9181668;19;20018;-67
2022/03/29 05:33:24;;;;;;;77.55;34.08;;;8.30;70.10;;;;;;9184336;19;20017;-67
2022/03/29 05:36:28;;;;;;;63.85;32.78;;;8.30;70.00;;;;;;9186577;19;20471;-67
2022/03/29 05:39:33;;;;;;;59.65;31.15;;;8.30;70.00;;;;;;9187709;19;20479;-67
2022/03/29 05:42:40;;;;;;;66.03;33.53;;;8.30;70.00;;;;;;9185214;19;20360;-69
2022/03/29 05:48:51;;;;;;;65.13;32.80;;;8.20;70.00;;;;;;9187882;19;20011;-69
2022/03/29 05:49:10;;;;;;;65.47;32.22;;;8.20;70.10;;;;;;9185432;19;20044;-67
2022/03/29 05:52:15;;;;;;;66.75;32.47;;;8.20;70.00;;;;;;9184817;19;20026;-68
2022/03/29 05:55:20;;;;;;;67.97;33.63;;;8.20;70.10;;;;;;9185359;19;20495;-69
2022/03/29 05:58:28;;;;;;;66.35;32.20;;;8.20;70.10;;;;;;9185066;19;20017;-68
2022/03/29 06:01:35;;;;;;;63.28;32.63;;;8.20;70.20;;;;;;9185720;19;20052;-66
2022/03/29 06:04:41;;;;;;;61.00;31.20;;;8.20;70.20;;;;;;9184207;19;20029;-67
2022/03/29 06:07:46;;;;;;;54.17;30.13;;;8.20;70.10;;;;;;9176002;19;20014;-67
2022/03/29 06:10:53;;;;;;;61.55;31.30;;;8.10;70.10;;;;;;9178817;19;20014;-67
2022/03/29 06:13:58;;;;;;;56.60;30.02;;;8.10;70.10;;;;;;9178560;19;20033;-67
2022/03/29 06:17:07;;;;;;;54.67;28.60;;;8.10;70.30;;;;;;9180351;19;20010;-66
2022/03/29 06:20:13;;;;;;;53.53;28.60;;;8.10;70.20;;;;;;9179150;19;20026;-67
2022/03/29 06:23:19;;;;;;;56.38;28.73;;;8.10;70.20;;;;;;9182428;19;20022;-68
2022/03/29 06:26:24;;;;;;;53.33;28.88;;;8.10;70.20;;;;;;9178683;19;20037;-69
2022/03/29 06:29:29;;;;;;;55.47;27.13;;;8.10;70.20;;;;;;9166963;19;20030;-68
2022/03/29 06:32:36;;;;;;;51.88;27.17;;;8.10;70.20;;;;;;9159768;19;20030;-69
2022/03/29 06:35:41;;;;;;;50.45;28.25;;;8.10;70.30;;;;;;9172171;19;20019;-67
2022/03/29 06:38:46;;;;;;;56.63;27.13;;;8.00;70.20;;;;;;9171628;19;20387;-67
2022/03/29 06:41:52;;;;;;;50.40;26.85;;;8.00;70.20;;;;;;9182863;19;20015;-68
2022/03/29 06:45:01;;;;;;;49.75;24.92;;;8.10;70.30;;;;;;9166862;19;20027;-68
2022/03/29 06:48:10;;;;;;;52.42;25.20;;;8.10;70.30;;;;;;9171943;19;20018;-68
2022/03/29 06:51:15;;;;;;;46.25;25.80;;;8.10;70.30;;;;;;9180089;19;20025;-64
2022/03/29 06:54:20;;;;;;;44.58;23.45;;;8.10;70.30;;;;;;9169944;19;20021;-67
2022/03/29 06:57:25;;;;;;;44.03;23.80;;;8.10;70.30;;;;;;9179054;19;20022;-67
2022/03/29 07:00:30;;;;;;;50.80;23.48;;;8.10;70.30;;;;;;9180345;19;20018;-66
2022/03/29 07:03:38;;;;;;;49.35;24.30;;;8.10;70.40;;;;;;9177721;19;20047;-68
2022/03/29 07:06:43;;;;;;;44.78;23.38;;;8.10;70.30;;;;;;9184521;19;20018;-68
2022/03/29 07:13:06;;;;;;;42.90;23.77;;;8.10;70.30;;;;;;9182712;19;20033;-70
2022/03/29 07:16:14;;;;;;;43.17;23.02;;;8.10;70.30;;;;;;9185707;19;20336;-68
2022/03/29 07:19:27;;;;;;;44.75;21.42;;;8.10;70.30;;;;;;9184224;19;20018;-68
2022/03/29 07:22:34;;;;;;;43.75;22.25;;;8.10;70.40;;;;;;9184902;19;20022;-68
2022/03/29 07:25:39;;;;;;;46.95;22.95;;;8.20;70.40;;;;;;9184697;19;20014;-66
2022/03/29 07:28:44;;;;;;;46.55;22.67;;;8.20;70.40;;;;;;9183805;19;20049;-67
2022/03/29 07:31:48;;;;;;;44.78;21.38;;;8.20;70.40;;;;;;9181251;19;20022;-68
2022/03/29 07:34:56;;;;;;;50.60;22.55;;;8.20;70.40;;;;;;9181652;19;20467;-68
2022/03/29 07:38:03;;;;;;;37.40;20.73;;;8.30;70.40;;;;;;9184992;19;20018;-68
2022/03/29 07:41:08;;;;;;;37.75;20.10;;;8.30;70.30;;;;;;9185427;19;20021;-69
2022/03/29 07:44:13;;;;;;;40.85;21.23;;;8.30;70.30;;;;;;9183770;19;20093;-68
2022/03/29 07:47:20;;;;;;;44.53;21.13;;;8.40;70.40;;;;;;9183005;19;20492;-67
2022/03/29 07:50:29;;;;;;;42.83;20.45;;;8.40;70.30;;;;;;9182817;19;20010;-68
2022/03/29 07:53:38;;;;;;;41.20;21.80;;;8.40;70.30;;;;;;9181989;19;20007;-68
2022/03/29 07:56:43;;;;;;;36.30;19.25;;;8.40;70.30;;;;;;9181615;19;20022;-68
2022/03/29 07:59:48;;;;;;;41.38;21.27;;;8.50;70.30;;;;;;9181066;19;20077;-66
2022/03/29 08:02:53;;;;;;;36.05;20.15;;;8.50;70.40;;;;;;9182408;19;20514;-67
2022/03/29 08:06:01;;;;;;;37.83;20.73;;;8.50;70.30;;;;;;9181835;19;20022;-67
2022/03/29 08:09:06;;;;;;;44.08;21.70;;;8.60;70.40;;;;;;9180848;19;20041;-69
2022/03/29 08:12:12;;;;;;;42.75;21.80;;;8.60;70.30;;;;;;9181032;19;20036;-68
2022/03/29 08:15:17;;;;;;;37.55;21.10;;;8.60;70.20;;;;;;9181839;19;20010;-68
2022/03/29 08:18:22;;;;;;;38.08;20.27;;;8.70;70.30;;;;;;9181140;19;20506;-68
2022/03/29 08:24:53;;;;;;;40.90;20.80;;;8.80;70.30;;;;;;9180380;19;20739;-68
2022/03/29 08:27:59;;;;;;;41.08;20.45;;;8.80;70.10;;;;;;9182427;19;20019;-68
2022/03/29 08:31:04;;;;;;;41.28;21.38;;;8.90;70.20;;;;;;9176220;19;20483;-66
2022/03/29 08:34:10;;;;;;;41.75;20.50;;;8.90;70.10;;;;;;9181880;19;20021;-68
2022/03/29 08:37:18;;;;;;;46.08;21.73;;;9.00;70.10;;;;;;9168293;19;20391;-67
2022/03/29 08:40:26;;;;;;;37.25;19.58;;;9.10;70.10;;;;;;9157525;19;20054;-68
2022/03/29 08:43:32;;;;;;;42.88;22.30;;;9.10;70.00;;;;;;9160049;19;20025;-68
2022/03/29 08:46:41;;;;;;;43.65;22.20;;;9.10;70.00;;;;;;9163268;19;20037;-67
2022/03/29 08:49:49;;;;;;;39.28;20.77;;;9.20;70.00;;;;;;9167860;19;20019;-68
2022/03/29 08:52:57;;;;;;;41.97;21.58;;;9.20;69.90;;;;;;9181481;19;20010;-69
2022/03/29 08:56:02;;;;;;;43.67;20.08;;;9.30;69.90;;;;;;9175673;19;20036;-68
2022/03/29 08:59:07;;;;;;;40.47;21.77;;;9.40;69.80;;;;;;9180609;19;20018;-68
2022/03/29 09:02:15;;;;;;;37.40;20.00;;;9.40;69.80;;;;;;9173257;19;20014;-69
2022/03/29 09:05:26;;;;;;;41.83;20.38;;;9.50;69.80;;;;;;9173941;19;20018;-69
2022/03/29 09:08:44;;;;;;;41.13;21.45;;;9.50;69.80;;;;;;9176479;19;20022;-67
2022/03/29 09:11:50;;;;;;;39.45;21.05;;;9.60;69.80;;;;;;9180414;19;20006;-69
2022/03/29 09:14:57;;;;;;;41.88;21.85;;;9.60;69.60;;;;;;9175905;19;20014;-68
2022/03/29 09:18:10;;;;;;;45.22;21.27;;;9.70;69.70;;;;;;9179778;19;20011;-67
2022/03/29 09:21:17;;;;;;;43.10;21.17;;;9.80;69.60;;;;;;9177442;19;20412;-69
2022/03/29 09:24:25;;;;;;;46.97;21.15;;;9.80;69.60;;;;;;9176162;19;20014;-68
2022/03/29 09:27:30;;;;;;;43.15;21.00;;;9.90;69.60;;;;;;9174766;19;20018;-67
2022/03/29 09:30:52;;;;;;;49.25;22.27;;;10.00;69.70;;;;;;9164426;19;20487;-66
2022/03/29 09:34:12;;;;;;;41.40;21.25;;;10.20;69.70;;;;;;9172587;19;20365;-67
2022/03/29 09:37:18;;;;;;;45.92;21.52;;;10.30;69.60;;;;;;9178142;19;20030;-67
2022/03/29 09:40:35;;;;;;;40.78;20.52;;;10.50;69.50;;;;;;9173879;19;20514;-67
2022/03/29 09:44:06;;;;;;;47.05;21.92;;;10.60;69.30;;;;;;9186678;19;20017;-68
2022/03/29 09:47:13;;;;;;;36.83;19.70;;;10.80;69.30;;;;;;9186716;19;20014;-67
2022/03/29 09:50:18;;;;;;;42.22;20.63;;;10.90;69.00;;;;;;9186402;19;20348;-66
2022/03/29 09:53:38;;;;;;;38.85;21.90;;;11.00;68.90;;;;;;9185458;19;20042;-68
2022/03/29 09:56:53;;;;;;;39.25;21.65;;;11.20;68.80;;;;;;9184039;19;20021;-68
2022/03/29 10:00:01;;;;;;;46.35;22.10;;;11.30;68.60;;;;;;9188034;19;20010;-66
2022/03/29 10:03:10;;;;;;;42.30;21.95;;;11.40;68.50;;;;;;9186238;19;20014;-67
2022/03/29 10:06:19;;;;;;;50.60;24.55;;;11.50;68.50;;;;;;9186750;19;20340;-68
2022/03/29 10:09:29;;;;;;;47.08;22.77;;;11.60;68.40;;;;;;9181463;19;20535;-68
2022/03/29 10:12:38;;;;;;;46.33;22.98;;;11.70;68.20;;;;;;9187068;19;20035;-66
2022/03/29 10:16:05;;;;;;;47.00;23.08;;;11.80;68.10;;;;;;9184691;19;20011;-66
2022/03/29 10:19:13;;;;;;;55.58;24.35;;;12.00;68.20;;;;;;9185564;19;20014;-66
2022/03/29 10:22:18;;;;;;;54.55;23.27;;;12.00;68.10;;;;;;9184820;19;20598;-69
2022/03/29 10:25:23;;;;;;;43.17;23.42;;;12.20;68.10;;;;;;9185873;19;20086;-69
2022/03/29 10:28:31;;;;;;;49.05;23.00;;;12.30;68.10;;;;;;9185312;19;20010;-68
2022/03/29 10:31:39;;;;;;;44.15;22.33;;;12.50;68.00;;;;;;9182704;19;20022;-67
2022/03/29 10:34:44;;;;;;;50.92;24.33;;;12.70;67.90;;;;;;9184704;19;20038;-67
2022/03/29 10:37:59;;;;;;;43.80;22.63;;;12.90;67.70;;;;;;9184769;19;20006;-67
2022/03/29 10:41:05;;;;;;;47.75;23.55;;;13.10;67.50;;;;;;9177087;19;20052;-66
2022/03/29 10:44:14;;;;;;;49.05;23.17;;;13.30;67.40;;;;;;9179222;19;20113;-66
2022/03/29 10:47:28;;;;;;;46.20;22.98;;;13.50;67.10;;;;;;9174172;19;20019;-66
2022/03/29 10:50:50;;;;;;;;;;;13.70;66.70;;;;;;9178187;19;20472;-71
2022/03/29 10:53:55;;;;;;;43.83;21.92;;;13.80;66.80;;;;;;9181404;19;19942;-68
2022/03/29 10:57:03;;;;;;;46.63;23.50;;;13.90;66.50;;;;;;9180529;19;20015;-66
2022/03/29 11:00:31;;;;;;;48.03;24.23;;;14.00;66.20;;;;;;9177327;19;20018;-67
2022/03/29 11:03:36;;;;;;;42.30;23.02;;;14.10;65.80;;;;;;9172018;19;20047;-67
2022/03/29 11:07:11;;;;;;;46.42;24.45;;;14.20;65.90;;;;;;9169474;19;20110;-67
2022/03/29 11:10:19;;;;;;;50.42;24.73;;;14.20;65.40;;;;;;9177683;19;20011;-68
2022/03/29 11:13:29;;;;;;;53.97;24.00;;;14.30;65.60;;;;;;9182506;19;20022;-69
2022/03/29 11:16:36;;;;;;;44.92;23.50;;;14.40;65.40;;;;;;9179922;19;20033;-68
2022/03/29 11:19:44;;;;;;;48.72;24.73;;;14.40;65.30;;;;;;9178021;19;20015;-69
2022/03/29 11:22:48;;;;;;;45.92;23.92;;;14.40;65.20;;;;;;9180378;19;20011;-69
2022/03/29 11:25:55;;;;;;;48.05;24.10;;;14.40;65.00;;;;;;9169054;19;20007;-66
2022/03/29 11:29:02;;;;;;;44.58;24.00;;;14.50;65.10;;;;;;9179645;19;20068;-66
2022/03/29 11:32:17;;;;;;;45.00;22.52;;;14.50;64.90;;;;;;9178487;19;20014;-67
2022/03/29 11:35:24;;;;;;;44.78;24.20;;;14.50;64.70;;;;;;9183838;19;20021;-68
2022/03/29 11:38:33;;;;;;;44.17;23.55;;;14.60;64.80;;;;;;9182547;19;20017;-68
2022/03/29 11:41:38;;;;;;;49.08;25.55;;;14.60;64.70;;;;;;9184194;19;20011;-67
2022/03/29 11:44:43;;;;;;;44.85;23.98;;;14.70;64.70;;;;;;9183203;19;20022;-67
2022/03/29 11:47:58;;;;;;;44.92;23.13;;;14.70;64.60;;;;;;9183812;19;20020;-68
2022/03/29 11:51:04;;;;;;;43.97;21.67;;;14.80;64.30;;;;;;9177875;19;20078;-67
2022/03/29 11:54:09;;;;;;;40.38;21.00;;;14.80;64.30;;;;;;9179451;19;20014;-66
2022/03/29 11:57:22;;;;;;;42.08;19.88;;;14.90;64.20;;;;;;9176763;19;20017;-67
2022/03/29 12:00:29;;;;;;;39.22;19.23;;;14.90;63.80;;;;;;9178981;19;20014;-67
2022/03/29 12:03:39;;;;;;;33.72;18.77;;;14.90;63.80;;;;;;9175265;19;20015;-66
2022/03/29 12:06:50;;;;;;;37.33;19.67;;;15.00;63.60;;;;;;9177934;19;20026;-68
2022/03/29 12:09:55;;;;;;;38.38;19.40;;;15.00;63.40;;;;;;9179887;19;20019;-67
2022/03/29 12:13:00;;;;;;;44.70;18.95;;;15.00;63.40;;;;;;9178543;19;20436;-68
2022/03/29 12:16:20;;;;;;;43.95;19.58;;;15.10;63.40;;;;;;9178743;19;20022;-68
2022/03/29 12:19:30;;;;;;;37.53;19.33;;;15.10;62.90;;;;;;9179295;19;20022;-69
2022/03/29 12:22:35;;;;;;;35.72;18.80;;;15.10;63.00;;;;;;9178779;19;20786;-69
2022/03/29 12:25:40;;;;;;;38.97;19.17;;;15.20;63.00;;;;;;9179836;19;20015;-69
2022/03/29 12:28:46;;;;;;;44.65;17.88;;;15.20;62.90;;;;;;9179445;19;20021;-68
2022/03/29 12:31:52;;;;;;;38.78;17.75;;;15.30;62.90;;;;;;9175000;19;20025;-66
2022/03/29 12:35:03;;;;;;;36.65;17.52;;;15.30;62.70;;;;;;9180076;19;20347;-70
2022/03/29 12:38:11;;;;;;;33.78;18.60;;;15.40;62.60;;;;;;9179774;19;20078;-67
2022/03/29 12:41:32;;;;;;;43.58;17.55;;;15.50;62.70;;;;;;9178622;19;20029;-68
2022/03/29 12:44:43;;;;;;;32.28;15.43;;;15.60;62.50;;;;;;9180362;19;20078;-67
2022/03/29 12:47:48;;;;;;;31.15;16.35;;;15.70;62.40;;;;;;9181172;19;20029;-66
2022/03/29 12:50:56;;;;;;;34.80;15.82;;;15.80;62.20;;;;;;9181592;19;20010;-66
2022/03/29 12:54:03;;;;;;;29.75;16.17;;;15.90;61.90;;;;;;9182546;19;20513;-68
2022/03/29 12:57:10;;;;;;;36.22;16.75;;;16.00;61.70;;;;;;9180044;19;20014;-68
2022/03/29 13:00:18;;;;;;;29.90;15.77;;;16.10;61.60;;;;;;9181670;19;20025;-66
2022/03/29 13:03:23;;;;;;;34.38;15.73;;;16.10;61.40;;;;;;9180289;19;20045;-66
2022/03/29 13:06:47;;;;;;;34.05;15.50;;;16.20;61.20;;;;;;9181326;19;20018;-68
2022/03/29 13:10:03;;;;;;;29.90;14.52;;;16.20;60.80;;;;;;9179551;19;20014;-68
2022/03/29 13:13:28;;;;;;;31.70;15.90;;;16.30;60.60;;;;;;9180024;19;20056;-67
2022/03/29 13:16:33;;;;;;;36.17;16.33;;;16.30;60.70;;;;;;9182842;19;20006;-67
2022/03/29 13:19:53;;;;;;;28.98;14.90;;;16.30;60.60;;;;;;9188268;19;20360;-66
2022/03/29 13:23:01;;;;;;;36.67;16.13;;;16.30;60.30;;;;;;9188131;19;20021;-66
2022/03/29 13:26:06;;;;;;;30.95;14.77;;;16.30;60.10;;;;;;9188616;19;20471;-65
2022/03/29 13:29:13;;;;;;;31.02;14.82;;;16.30;60.10;;;;;;9189237;19;20011;-65
2022/03/29 13:32:18;;;;;;;30.83;16.10;;;16.30;60.00;;;;;;9185223;19;20014;-65
2022/03/29 13:35:23;;;;;;;34.72;17.38;;;16.40;60.00;;;;;;9190422;19;20018;-68
2022/03/29 13:38:31;;;;;;;34.72;16.63;;;16.30;59.90;;;;;;9183349;19;20022;-66
2022/03/29 13:41:36;;;;;;;33.35;15.05;;;16.40;59.70;;;;;;9187616;19;20439;-66
2022/03/29 13:44:41;;;;;;;35.15;15.65;;;16.40;59.70;;;;;;9189666;19;20014;-66
2022/03/29 13:47:46;;;;;;;29.83;15.48;;;16.40;59.60;;;;;;9186879;19;20085;-66
2022/03/29 13:50:51;;;;;;;34.75;16.52;;;16.40;59.50;;;;;;9188668;19;20086;-66
2022/03/29 13:53:59;;;;;;;32.80;14.48;;;16.40;59.40;;;;;;9184839;19;20021;-65
2022/03/29 13:57:05;;;;;;;29.58;15.80;;;16.50;59.20;;;;;;9184357;19;20018;-64
2022/03/29 14:00:12;;;;;;;34.65;14.85;;;16.50;59.20;;;;;;9183417;19;20002;-65
2022/03/29 14:03:17;;;;;;;31.85;15.35;;;16.50;59.10;;;;;;9183506;19;20047;-66
2022/03/29 14:06:23;;;;;;;29.38;15.52;;;16.50;58.90;;;;;;9181340;19;20014;-68
2022/03/29 14:09:31;;;;;;;36.80;16.58;;;16.50;58.80;;;;;;9179903;19;20455;-67
2022/03/29 14:12:36;;;;;;;38.03;16.38;;;16.60;58.60;;;;;;9180778;19;20048;-65
2022/03/29 14:15:47;;;;;;;35.70;15.55;;;16.50;58.50;;;;;;9180773;19;20015;-65
2022/03/29 14:18:53;;;;;;;31.25;16.02;;;16.50;58.30;;;;;;9178352;19;20025;-66
2022/03/29 14:21:59;;;;;;;35.72;17.25;;;16.50;58.20;;;;;;9182057;19;20017;-68
2022/03/29 14:25:08;;;;;;;37.45;15.77;;;16.40;58.00;;;;;;9179767;19;20021;-67
2022/03/29 14:28:13;;;;;;;31.58;16.90;;;16.30;58.10;;;;;;9178726;19;20372;-65
2022/03/29 14:31:18;;;;;;;33.53;17.48;;;16.30;57.90;;;;;;9175779;19;20019;-66
2022/03/29 14:34:23;;;;;;;31.42;15.57;;;16.30;57.90;;;;;;9181649;19;20354;-67
2022/03/29 14:37:28;;;;;;;33.70;15.52;;;16.30;57.80;;;;;;9183241;19;20376;-67
2022/03/29 14:40:36;;;;;;;39.13;17.48;;;16.30;57.70;;;;;;9183979;19;20015;-69
2022/03/29 14:43:41;;;;;;;34.20;16.77;;;16.20;57.50;;;;;;9183598;19;20475;-67
2022/03/29 14:46:46;;;;;;;41.55;16.98;;;16.20;57.60;;;;;;9182017;19;20018;-67
2022/03/29 14:49:52;;;;;;;34.10;16.10;;;16.20;57.50;;;;;;9182831;19;20026;-67
2022/03/29 14:52:57;;;;;;;37.25;14.40;;;16.20;57.50;;;;;;9177663;19;20110;-66
2022/03/29 14:56:07;;;;;;;30.92;14.07;;;16.10;57.40;;;;;;9178255;19;20021;-67
2022/03/29 14:59:12;;;;;;;27.55;13.98;;;16.10;57.20;;;;;;9176647;19;20328;-66
2022/03/29 15:02:20;;;;;;;38.35;16.02;;;16.10;57.20;;;;;;9178901;19;20018;-66
2022/03/29 15:05:25;;;;;;;29.55;15.50;;;16.10;57.10;;;;;;9176949;19;20022;-68
2022/03/29 15:08:31;;;;;;;35.78;14.20;;;16.00;57.10;;;;;;9177242;19;20055;-66
2022/03/29 15:11:38;;;;;;;30.42;13.07;;;16.00;57.10;;;;;;9175852;19;20475;-67
2022/03/29 15:14:44;;;;;;;31.73;13.32;;;16.00;56.90;;;;;;9179460;19;20019;-66
2022/03/29 15:17:50;;;;;;;26.55;13.02;;;16.00;57.00;;;;;;9177500;19;20021;-65
2022/03/29 15:20:55;;;;;;;29.58;12.15;;;15.90;56.90;;;;;;9176665;19;20022;-68
2022/03/29 15:24:01;;;;;;;28.35;13.15;;;15.90;56.80;;;;;;9177798;19;20025;-66
2022/03/29 15:27:09;;;;;;;26.17;13.10;;;15.90;56.70;;;;;;9179038;19;20021;-66
2022/03/29 15:30:15;;;;;;;26.05;12.93;;;15.80;56.50;;;;;;9172179;19;20018;-65
2022/03/29 15:33:20;;;;;;;30.92;13.35;;;15.70;56.60;;;;;;9177455;19;20483;-67
2022/03/29 15:36:25;;;;;;;32.28;13.65;;;15.70;56.60;;;;;;9177991;19;20018;-66
2022/03/29 15:39:30;;;;;;;29.63;14.10;;;15.70;56.50;;;;;;9173607;19;20021;-68
2022/03/29 15:42:38;;;;;;;33.53;14.63;;;15.70;56.50;;;;;;9177345;19;20022;-67
2022/03/29 15:45:45;;;;;;;39.15;14.43;;;15.70;57.10;;;;;;9178785;19;20483;-67
2022/03/29 15:48:50;;;;;;;29.55;14.15;;;15.60;56.50;;;;;;9175861;19;20015;-64
2022/03/29 15:51:55;;;;;;;29.67;14.30;;;15.60;56.50;;;;;;9177067;19;20025;-67
2022/03/29 15:55:02;;;;;;;29.33;15.32;;;15.50;56.50;;;;;;9177307;19;20025;-66
2022/03/29 15:58:10;;;;;;;43.17;13.63;;;15.50;56.50;;;;;;9174817;19;20637;-67
2022/03/29 16:01:32;;;;;;;30.77;13.20;;;15.50;56.50;;;;;;9177881;19;20011;-69
2022/03/29 16:04:38;;;;;;;31.10;13.25;;;15.40;56.50;;;;;;9174377;19;20011;-67